Terminal Aerodrome Forecast
Issued by NWS Birmingham, AL

Home | Current Version | Previous Version | Text Only | Print | Product List | Glossary On
Versions: 1 2 3 4 5 6 7 8 9 10 11 12
957
FTUS44 KBMX 161120
TAFBHM
TAF
KBHM 161120Z 1612/1712 12003KT P6SM BKN070
     FM161500 17008KT P6SM SCT050 SCT250
     FM170600 18008KT P6SM OVC015=

USA.gov is the U.S. government's official web portal to all federal, state and local government web resources and services.